createdAt,value
2023-02-18T00:00:59.774Z,19.63
2023-02-18T00:03:28.373Z,18.30
2023-02-18T00:05:55.614Z,16.33
2023-02-18T00:08:23.876Z,16.27
2023-02-18T00:10:51.382Z,16.23
2023-02-18T00:13:18.673Z,16.70
2023-02-18T00:15:45.946Z,16.90
2023-02-18T00:18:13.232Z,18.35
2023-02-18T00:20:40.532Z,15.73
2023-02-18T00:23:07.889Z,15.75
2023-02-18T00:25:35.099Z,16.70
2023-02-18T00:28:02.338Z,19.23
2023-02-18T00:30:29.736Z,17.10
2023-02-18T00:32:57.069Z,17.48
2023-02-18T00:35:24.335Z,17.63
2023-02-18T00:37:52.894Z,21.30
2023-02-18T00:40:21.085Z,23.42
2023-02-18T00:42:48.347Z,25.23
2023-02-18T00:45:15.662Z,25.27
2023-02-18T00:47:43.064Z,24.88
2023-02-18T00:50:10.751Z,28.20
2023-02-18T00:52:38.136Z,28.48
2023-02-18T00:55:05.505Z,30.02
2023-02-18T00:57:33.681Z,29.60
2023-02-18T01:00:01.135Z,32.75
2023-02-18T01:02:28.402Z,32.28
2023-02-18T01:04:55.757Z,27.30
2023-02-18T01:07:23.059Z,27.40
2023-02-18T01:09:50.318Z,32.88
2023-02-18T01:12:17.792Z,33.55
2023-02-18T01:14:45.121Z,33.47
2023-02-18T01:17:12.385Z,30.52
2023-02-18T01:19:40.656Z,36.13
2023-02-18T01:22:07.930Z,32.30
2023-02-18T01:24:35.455Z,33.25
2023-02-18T01:27:02.657Z,33.80
2023-02-18T01:29:29.902Z,32.40
2023-02-18T01:31:57.219Z,32.28
2023-02-18T01:34:24.598Z,31.65
2023-02-18T01:36:51.912Z,33.90
2023-02-18T01:39:19.204Z,29.73
2023-02-18T01:41:46.467Z,32.60
2023-02-18T01:44:23.895Z,32.38
2023-02-18T01:46:51.269Z,33.78
2023-02-18T01:49:25.972Z,30.50
2023-02-18T01:51:56.960Z,33.38
2023-02-18T01:54:29.725Z,29.73
2023-02-18T01:57:02.636Z,30.40
2023-02-18T01:59:35.364Z,30.40
2023-02-18T02:02:02.668Z,31.98
2023-02-18T02:04:30.490Z,30.92
2023-02-18T02:06:57.895Z,30.58
2023-02-18T02:09:26.760Z,31.77
2023-02-18T02:12:11.297Z,33.10
2023-02-18T02:14:38.586Z,31.08
2023-02-18T02:17:08.677Z,34.63
2023-02-18T02:19:38.672Z,33.15
2023-02-18T02:22:24.764Z,30.90
2023-02-18T02:24:57.389Z,33.75
2023-02-18T02:27:57.124Z,31.20
2023-02-18T02:30:24.392Z,30.45
2023-02-18T02:33:05.025Z,29.02
2023-02-18T02:35:39.335Z,29.48
2023-02-18T02:38:16.748Z,30.52
2023-02-18T02:40:44.033Z,28.73
2023-02-18T02:43:30.146Z,29.63
2023-02-18T02:46:03.586Z,27.90
2023-02-18T02:48:33.693Z,28.23
2023-02-18T02:51:07.754Z,27.05
2023-02-18T02:53:36.978Z,26.90
2023-02-18T02:56:04.559Z,27.60
2023-02-18T02:58:32.221Z,28.98
2023-02-18T03:00:59.452Z,27.27
2023-02-18T03:03:39.677Z,27.48
2023-02-18T03:06:29.996Z,26.50
2023-02-18T03:09:00.057Z,27.90
2023-02-18T03:11:29.178Z,28.23
2023-02-18T03:13:59.675Z,26.90
2023-02-18T03:16:36.538Z,29.90
2023-02-18T03:19:10.729Z,28.85
2023-02-18T03:21:38.595Z,30.85
2023-02-18T03:24:15.473Z,29.25
2023-02-18T03:26:46.746Z,26.65
2023-02-18T03:29:15.354Z,27.70
2023-02-18T03:31:43.877Z,22.23
2023-02-18T03:34:19.415Z,23.17
2023-02-18T03:36:46.845Z,24.65
2023-02-18T03:39:18.925Z,20.55
2023-02-18T03:41:47.782Z,19.05
2023-02-18T03:44:15.056Z,15.30
2023-02-18T03:46:43.704Z,13.25
2023-02-18T03:49:11.792Z,13.98
2023-02-18T03:51:39.322Z,13.52
2023-02-18T03:54:06.581Z,10.38
2023-02-18T03:56:34.641Z,11.48
2023-02-18T03:59:02.071Z,10.48
2023-02-18T04:01:29.383Z,9.13
2023-02-18T04:03:56.734Z,9.40
2023-02-18T04:06:24.473Z,9.10
2023-02-18T04:08:51.759Z,8.05
2023-02-18T04:11:19.114Z,9.35
2023-02-18T04:13:46.338Z,9.02
2023-02-18T04:16:14.099Z,10.10
2023-02-18T04:18:41.429Z,11.02
2023-02-18T04:21:08.776Z,10.80
2023-02-18T04:23:36.085Z,13.93
2023-02-18T04:26:03.322Z,15.50
2023-02-18T04:28:30.577Z,13.68
2023-02-18T04:30:57.793Z,15.10
2023-02-18T04:33:25.035Z,17.17
2023-02-18T04:35:52.295Z,20.77
2023-02-18T04:38:19.506Z,20.30
2023-02-18T04:40:46.710Z,20.90
2023-02-18T04:43:13.945Z,18.80
2023-02-18T04:45:41.174Z,22.35
2023-02-18T04:48:08.484Z,19.77
2023-02-18T04:50:35.681Z,22.95
2023-02-18T04:53:02.932Z,21.65
2023-02-18T04:55:30.171Z,21.25
2023-02-18T04:57:57.437Z,19.65
2023-02-18T05:00:24.734Z,18.85
2023-02-18T05:02:51.974Z,19.63
2023-02-18T05:05:19.272Z,16.88
2023-02-18T05:07:46.532Z,17.25
2023-02-18T05:10:15.969Z,19.58
2023-02-18T05:12:43.237Z,18.23
2023-02-18T05:15:10.756Z,18.48
2023-02-18T05:17:38.194Z,17.15
2023-02-18T05:20:08.189Z,19.15
2023-02-18T05:22:36.800Z,17.15
2023-02-18T05:25:04.185Z,18.50
2023-02-18T05:27:31.396Z,18.00
2023-02-18T05:29:58.699Z,16.88
2023-02-18T05:32:25.906Z,14.88
2023-02-18T05:34:53.165Z,16.30
2023-02-18T05:37:20.378Z,15.98
2023-02-18T05:39:47.738Z,17.42
2023-02-18T05:42:15.078Z,17.20
2023-02-18T05:44:42.364Z,17.02
2023-02-18T05:47:11.626Z,17.00
2023-02-18T05:52:06.418Z,16.45
2023-02-18T05:54:34.221Z,17.25
2023-02-18T05:57:01.732Z,16.92
2023-02-18T05:59:29.004Z,15.90
2023-02-18T06:01:56.570Z,17.52
2023-02-18T06:04:24.120Z,16.90
2023-02-18T06:06:51.698Z,15.68
2023-02-18T06:09:18.918Z,14.55
2023-02-18T06:11:46.186Z,16.45
2023-02-18T06:14:13.398Z,15.45
2023-02-18T06:16:40.688Z,14.35
2023-02-18T06:19:07.969Z,14.55
2023-02-18T06:21:35.337Z,14.45
2023-02-18T06:24:02.626Z,15.13
2023-02-18T06:26:29.895Z,16.17
2023-02-18T06:28:57.120Z,15.43
2023-02-18T06:31:24.482Z,14.00
2023-02-18T06:33:51.842Z,16.23
2023-02-18T06:36:19.389Z,15.18
2023-02-18T06:38:46.975Z,14.02
2023-02-18T06:41:14.393Z,16.42
2023-02-18T06:43:41.777Z,14.98
2023-02-18T06:46:09.693Z,13.63
2023-02-18T06:48:38.166Z,14.20
2023-02-18T06:51:05.550Z,12.15
2023-02-18T06:53:32.811Z,10.90
2023-02-18T06:56:00.017Z,10.00
2023-02-18T06:58:27.310Z,10.65
2023-02-18T07:00:54.720Z,12.35
2023-02-18T07:03:22.070Z,9.57
2023-02-18T07:05:49.456Z,9.02
2023-02-18T07:08:16.726Z,8.27
2023-02-18T07:10:43.985Z,6.88
2023-02-18T07:13:11.254Z,8.85
2023-02-18T07:15:38.492Z,7.93
2023-02-18T07:18:05.831Z,8.50
2023-02-18T07:20:33.092Z,8.73
2023-02-18T07:23:00.470Z,9.35
2023-02-18T07:25:27.792Z,8.32
2023-02-18T07:27:55.060Z,11.27
2023-02-18T07:30:22.458Z,6.28
2023-02-18T07:32:49.732Z,6.30
2023-02-18T07:35:17.388Z,9.18
2023-02-18T07:37:45.425Z,4.85
2023-02-18T07:40:14.559Z,6.10
2023-02-18T07:42:41.814Z,6.30
2023-02-18T07:45:09.708Z,4.40
2023-02-18T07:47:37.054Z,3.78
2023-02-18T07:50:04.724Z,3.75
2023-02-18T07:52:31.970Z,3.60
2023-02-18T07:54:59.281Z,4.13
2023-02-18T07:57:26.634Z,3.78
2023-02-18T07:59:53.852Z,3.20
2023-02-18T08:02:22.687Z,4.05
2023-02-18T08:04:50.279Z,3.55
2023-02-18T08:07:18.113Z,4.05
2023-02-18T08:09:45.452Z,3.88
2023-02-18T08:12:12.778Z,4.15
2023-02-18T08:14:40.830Z,3.63
2023-02-18T08:17:08.026Z,3.50
2023-02-18T08:19:35.299Z,4.40
2023-02-18T08:22:03.386Z,4.80
2023-02-18T08:24:30.720Z,3.22
2023-02-18T08:27:01.091Z,5.35
2023-02-18T08:29:28.774Z,4.07
2023-02-18T08:31:57.995Z,5.97
2023-02-18T08:34:25.501Z,3.97
2023-02-18T08:36:52.770Z,5.03
2023-02-18T08:39:19.963Z,2.80
2023-02-18T08:41:47.200Z,3.10
2023-02-18T08:44:14.674Z,4.75
2023-02-18T08:46:41.914Z,4.53
2023-02-18T08:49:09.200Z,3.78
2023-02-18T08:51:36.483Z,3.70
2023-02-18T08:54:03.778Z,4.93
2023-02-18T08:56:32.537Z,3.95
2023-02-18T08:58:59.878Z,3.45
2023-02-18T09:01:27.273Z,4.60
2023-02-18T09:03:54.615Z,3.67
2023-02-18T09:06:21.834Z,3.45
2023-02-18T09:08:49.147Z,4.40
2023-02-18T09:11:16.863Z,3.47
2023-02-18T09:13:44.060Z,4.70
2023-02-18T09:16:18.342Z,3.47
2023-02-18T09:18:46.157Z,2.92
2023-02-18T09:21:14.243Z,4.90
2023-02-18T09:23:41.538Z,4.13
2023-02-18T09:26:10.654Z,4.72
2023-02-18T09:28:38.138Z,3.55
2023-02-18T09:31:06.686Z,4.93
2023-02-18T09:33:37.250Z,3.47
2023-02-18T09:36:04.635Z,4.53
2023-02-18T09:38:32.228Z,3.42
2023-02-18T09:41:00.535Z,5.38
2023-02-18T09:43:30.621Z,4.63
2023-02-18T09:45:59.025Z,4.88
2023-02-18T09:48:31.268Z,3.67
2023-02-18T09:50:58.971Z,4.28
2023-02-18T09:53:26.795Z,3.65
2023-02-18T09:55:56.268Z,3.60
2023-02-18T09:58:28.931Z,4.82
2023-02-18T10:01:02.047Z,3.08
2023-02-18T10:03:30.015Z,4.07
2023-02-18T10:05:59.578Z,5.22
2023-02-18T10:08:28.857Z,3.83
2023-02-18T10:13:25.372Z,3.80
2023-02-18T10:18:34.390Z,4.70
2023-02-18T10:21:10.024Z,6.22
2023-02-18T10:23:39.521Z,4.75
2023-02-18T10:28:36.175Z,3.40
2023-02-18T10:31:09.739Z,6.15
2023-02-18T10:33:43.410Z,2.88
2023-02-18T10:36:29.267Z,5.60
2023-02-18T10:39:14.991Z,4.95
2023-02-18T10:41:45.074Z,3.75
2023-02-18T10:44:15.091Z,3.80
2023-02-18T10:46:55.361Z,3.58
2023-02-18T10:49:31.949Z,4.82
2023-02-18T10:51:59.927Z,4.00
2023-02-18T10:54:28.000Z,3.88
2023-02-18T10:57:00.278Z,4.07
2023-02-18T10:59:28.538Z,3.42
2023-02-18T11:02:14.638Z,3.92
2023-02-18T11:04:43.198Z,3.00
2023-02-18T11:07:15.283Z,3.97
2023-02-18T11:09:49.852Z,5.50
2023-02-18T11:12:28.277Z,2.65
2023-02-18T11:15:04.661Z,3.88
2023-02-18T11:17:32.887Z,4.10
2023-02-18T11:20:02.392Z,2.90
2023-02-18T11:22:30.930Z,5.22
2023-02-18T11:24:59.786Z,2.58
2023-02-18T11:27:29.638Z,4.00
2023-02-18T11:30:01.814Z,3.53
2023-02-18T11:32:30.090Z,3.80
2023-02-18T11:34:57.474Z,3.88
2023-02-18T11:37:25.100Z,3.83
2023-02-18T11:39:53.592Z,3.17
2023-02-18T11:42:22.557Z,2.72
2023-02-18T11:44:59.876Z,3.45
2023-02-18T11:47:50.114Z,3.25
2023-02-18T11:50:22.133Z,2.90
2023-02-18T11:52:50.492Z,3.78
2023-02-18T11:55:25.035Z,3.57
2023-02-18T11:57:59.427Z,3.95
2023-02-18T12:00:40.923Z,2.53
2023-02-18T12:03:13.923Z,2.35
2023-02-18T12:05:41.534Z,3.92
2023-02-18T12:08:14.464Z,3.13
2023-02-18T12:10:43.703Z,2.35
2023-02-18T12:13:13.963Z,2.20
2023-02-18T12:15:41.197Z,2.95
2023-02-18T12:18:11.698Z,3.17
2023-02-18T12:20:38.970Z,2.67
2023-02-18T12:23:23.792Z,2.20
2023-02-18T12:25:56.909Z,2.45
2023-02-18T12:28:42.574Z,3.78
2023-02-18T12:31:12.973Z,1.95
2023-02-18T12:34:03.260Z,2.75
2023-02-18T12:36:36.296Z,2.72
2023-02-18T12:39:15.499Z,2.95
2023-02-18T12:44:18.809Z,2.10
2023-02-18T12:47:00.405Z,2.65
2023-02-18T12:49:45.045Z,2.25
2023-02-18T12:52:31.360Z,1.88
2023-02-18T12:55:18.741Z,2.50
2023-02-18T12:57:52.881Z,2.67
2023-02-18T13:00:32.400Z,2.58
2023-02-18T13:03:09.739Z,2.50
2023-02-18T13:05:36.943Z,2.72
2023-02-18T13:08:11.609Z,2.42
2023-02-18T13:10:57.420Z,2.33
2023-02-18T13:13:30.747Z,2.15
2023-02-18T13:16:00.484Z,2.28
2023-02-18T13:18:31.199Z,3.85
2023-02-18T13:21:06.660Z,3.85
2023-02-18T13:23:42.327Z,2.40
2023-02-18T13:26:12.317Z,2.53
2023-02-18T13:28:49.043Z,2.72
2023-02-18T13:31:19.282Z,2.42
2023-02-18T13:34:05.291Z,3.03
2023-02-18T13:36:48.782Z,3.05
2023-02-18T13:39:20.304Z,2.47
2023-02-18T13:41:49.228Z,1.90
2023-02-18T13:44:19.303Z,2.33
2023-02-18T13:46:50.604Z,1.95
2023-02-18T13:49:27.927Z,3.30
2023-02-18T13:51:56.417Z,2.20
2023-02-18T13:54:26.914Z,2.70
2023-02-18T13:56:58.743Z,3.20
2023-02-18T13:59:33.659Z,2.17
2023-02-18T14:02:19.929Z,2.47
2023-02-18T14:04:47.310Z,2.78
2023-02-18T14:07:29.675Z,2.85
2023-02-18T14:09:58.490Z,2.78
2023-02-18T14:12:38.089Z,2.88
2023-02-18T14:15:28.410Z,2.80
2023-02-18T14:18:14.248Z,3.08
2023-02-18T14:20:41.503Z,3.17
2023-02-18T14:23:20.781Z,2.75
2023-02-18T14:25:52.672Z,2.55
2023-02-18T14:28:36.141Z,2.22
2023-02-18T14:31:05.216Z,3.45
2023-02-18T14:33:36.274Z,2.80
2023-02-18T14:36:15.669Z,2.70
2023-02-18T14:38:55.461Z,2.38
2023-02-18T14:41:28.973Z,2.78
2023-02-18T14:44:02.202Z,2.63
2023-02-18T14:46:41.481Z,4.05
2023-02-18T14:49:17.836Z,3.08
2023-02-18T14:51:48.028Z,2.50
2023-02-18T14:54:18.697Z,2.88
2023-02-18T14:57:00.101Z,2.63
2023-02-18T14:59:28.845Z,2.90
2023-02-18T15:01:57.000Z,2.60
2023-02-18T15:04:25.616Z,3.05
2023-02-18T15:06:59.642Z,3.10
2023-02-18T15:09:26.965Z,2.97
2023-02-18T15:12:00.746Z,3.20
2023-02-18T15:14:30.829Z,3.83
2023-02-18T15:16:58.628Z,2.45
2023-02-18T15:19:27.489Z,2.50
2023-02-18T15:21:56.106Z,3.03
2023-02-18T15:24:26.423Z,2.65
2023-02-18T15:26:55.324Z,3.33
2023-02-18T15:29:23.886Z,4.20
2023-02-18T15:31:51.288Z,3.00
2023-02-18T15:34:40.317Z,3.60
2023-02-18T15:37:13.813Z,3.33
2023-02-18T15:39:42.260Z,2.85
2023-02-18T15:42:19.262Z,3.60
2023-02-18T15:44:48.286Z,2.63
2023-02-18T15:47:17.535Z,3.05
2023-02-18T15:52:12.162Z,4.45
2023-02-18T15:54:41.584Z,3.10
2023-02-18T15:57:11.059Z,2.60
2023-02-18T15:59:43.773Z,3.10
2023-02-18T16:02:18.795Z,3.28
2023-02-18T16:04:56.725Z,2.58
2023-02-18T16:07:31.471Z,3.47
2023-02-18T16:10:19.024Z,4.35
2023-02-18T16:12:50.188Z,4.05
2023-02-18T16:15:20.367Z,4.20
2023-02-18T16:17:47.720Z,2.78
2023-02-18T16:20:18.261Z,3.83
2023-02-18T16:22:46.765Z,3.83
2023-02-18T16:25:16.654Z,3.38
2023-02-18T16:27:48.864Z,3.70
2023-02-18T16:30:18.738Z,2.85
2023-02-18T16:32:46.189Z,3.10
2023-02-18T16:35:14.061Z,3.22
2023-02-18T16:37:42.834Z,2.95
2023-02-18T16:40:21.992Z,3.72
2023-02-18T16:42:49.225Z,3.33
2023-02-18T16:45:16.762Z,3.35
2023-02-18T16:47:45.362Z,3.45
2023-02-18T16:50:20.218Z,4.80
2023-02-18T16:52:47.556Z,4.57
2023-02-18T16:55:19.805Z,4.05
2023-02-18T16:57:48.417Z,3.30
2023-02-18T17:00:17.455Z,3.97
2023-02-18T17:02:46.609Z,3.17
2023-02-18T17:05:37.312Z,4.20
2023-02-18T17:08:16.103Z,4.25
2023-02-18T17:10:43.513Z,3.60
2023-02-18T17:13:31.602Z,3.22
2023-02-18T17:15:59.489Z,4.10
2023-02-18T17:18:27.186Z,3.75
2023-02-18T17:20:54.486Z,3.67
2023-02-18T17:23:23.197Z,4.30
2023-02-18T17:25:51.343Z,4.75
2023-02-18T17:28:22.635Z,5.97
2023-02-18T17:30:53.878Z,4.88
2023-02-18T17:33:21.166Z,5.28
2023-02-18T17:35:48.450Z,4.47
2023-02-18T17:38:16.977Z,4.13
2023-02-18T17:40:44.239Z,5.50
2023-02-18T17:43:15.379Z,6.45
2023-02-18T17:45:47.799Z,6.20
2023-02-18T17:48:15.118Z,4.43
2023-02-18T17:50:42.727Z,5.85
2023-02-18T17:53:11.613Z,5.72
2023-02-18T17:55:39.090Z,6.07
2023-02-18T17:58:06.358Z,6.93
2023-02-18T18:00:35.337Z,6.15
2023-02-18T18:03:02.984Z,6.32
2023-02-18T18:05:32.203Z,7.93
2023-02-18T18:10:30.654Z,8.25
2023-02-18T18:12:58.569Z,7.78
2023-02-18T18:15:25.902Z,6.95
2023-02-18T18:17:53.373Z,8.57
2023-02-18T18:20:21.009Z,8.60
2023-02-18T18:22:48.449Z,7.05
2023-02-18T18:25:29.256Z,6.80
2023-02-18T18:27:56.799Z,8.80
2023-02-18T18:30:25.930Z,8.32
2023-02-18T18:32:53.338Z,7.80
2023-02-18T18:35:22.407Z,9.63
2023-02-18T18:37:49.914Z,8.77
2023-02-18T18:40:17.809Z,8.52
2023-02-18T18:42:45.158Z,10.38
2023-02-18T18:45:20.634Z,10.32
2023-02-18T18:47:48.397Z,8.38
2023-02-18T18:50:16.316Z,11.15
2023-02-18T18:52:44.177Z,14.32
2023-02-18T18:55:31.293Z,23.55
2023-02-18T18:57:59.007Z,11.80
2023-02-18T19:00:27.931Z,12.80
2023-02-18T19:02:55.358Z,14.10
2023-02-18T19:05:24.937Z,11.57
2023-02-18T19:07:52.256Z,13.48
2023-02-18T19:10:19.854Z,11.82
2023-02-18T19:12:47.578Z,12.45
2023-02-18T19:15:17.284Z,12.27
2023-02-18T19:17:48.624Z,12.77
2023-02-18T19:20:17.347Z,12.60
2023-02-18T19:22:44.795Z,12.38
2023-02-18T19:25:12.121Z,12.98
2023-02-18T19:27:40.058Z,10.23
2023-02-18T19:30:08.501Z,10.68
2023-02-18T19:32:35.850Z,10.70
2023-02-18T19:35:03.057Z,12.30
2023-02-18T19:37:34.121Z,12.30
2023-02-18T19:40:01.496Z,10.48
2023-02-18T19:42:28.932Z,11.48
2023-02-18T19:44:56.237Z,10.13
2023-02-18T19:47:24.716Z,11.95
2023-02-18T19:49:52.612Z,8.75
2023-02-18T19:52:20.860Z,11.02
2023-02-18T19:54:48.209Z,8.38
2023-02-18T19:57:15.502Z,7.05
2023-02-18T19:59:42.917Z,7.75
2023-02-18T20:02:13.317Z,8.57
2023-02-18T20:04:40.646Z,6.95
2023-02-18T20:07:08.130Z,7.68
2023-02-18T20:09:35.467Z,7.00
2023-02-18T20:12:03.417Z,6.50
2023-02-18T20:14:30.711Z,6.93
2023-02-18T20:16:58.642Z,7.47
2023-02-18T20:19:26.782Z,8.98
2023-02-18T20:21:56.041Z,8.82
2023-02-18T20:26:50.670Z,9.60
2023-02-18T20:29:19.699Z,11.07
2023-02-18T20:31:47.112Z,13.98
2023-02-18T20:34:14.500Z,14.18
2023-02-18T20:36:44.032Z,16.60
2023-02-18T20:39:16.129Z,15.73
2023-02-18T20:41:43.817Z,19.40
2023-02-18T20:44:11.240Z,18.45
2023-02-18T20:46:39.404Z,20.17
2023-02-18T20:49:08.513Z,19.25
2023-02-18T20:51:36.176Z,16.90
2023-02-18T20:54:04.655Z,16.38
2023-02-18T20:56:31.970Z,15.65
2023-02-18T20:58:59.211Z,15.27
2023-02-18T21:01:26.697Z,14.80
2023-02-18T21:03:54.064Z,15.55
2023-02-18T21:06:22.768Z,14.35
2023-02-18T21:08:51.905Z,14.30
2023-02-18T21:11:20.765Z,13.15
2023-02-18T21:13:48.778Z,12.95
2023-02-18T21:16:16.710Z,11.55
2023-02-18T21:18:44.289Z,11.82
2023-02-18T21:21:12.414Z,11.18
2023-02-18T21:23:40.096Z,11.48
2023-02-18T21:26:09.207Z,10.48
2023-02-18T21:28:36.462Z,11.18
2023-02-18T21:31:03.959Z,11.10
2023-02-18T21:33:31.510Z,10.23
2023-02-18T21:36:03.114Z,12.30
2023-02-18T21:38:30.408Z,10.82
2023-02-18T21:40:57.774Z,12.23
2023-02-18T21:43:26.247Z,11.25
2023-02-18T21:45:53.484Z,9.18
2023-02-18T21:48:39.282Z,8.13
2023-02-18T21:51:06.627Z,8.65
2023-02-18T21:53:33.882Z,8.45
2023-02-18T21:56:09.006Z,8.07
2023-02-18T21:58:36.242Z,6.88
2023-02-18T22:01:03.504Z,8.05
2023-02-18T22:03:30.780Z,7.47
2023-02-18T22:05:58.023Z,6.35
2023-02-18T22:08:25.265Z,7.32
2023-02-18T22:10:52.650Z,7.05
2023-02-18T22:13:19.946Z,6.90
2023-02-18T22:15:54.771Z,7.10
2023-02-18T22:18:22.081Z,6.07
2023-02-18T22:20:49.330Z,6.95
2023-02-18T22:23:18.597Z,6.70
2023-02-18T22:30:42.332Z,8.77
2023-02-18T22:33:09.555Z,7.22
2023-02-18T22:35:36.744Z,5.72
2023-02-18T22:38:04.008Z,7.05
2023-02-18T22:40:31.242Z,6.82
2023-02-18T22:42:58.525Z,6.45
2023-02-18T22:45:25.745Z,6.90
2023-02-18T22:47:52.926Z,6.38
2023-02-18T22:50:20.246Z,9.20
2023-02-18T22:52:47.500Z,6.55
2023-02-18T22:55:14.760Z,6.20
2023-02-18T22:57:42.104Z,6.60
2023-02-18T23:00:10.697Z,6.80
2023-02-18T23:02:37.974Z,7.63
2023-02-18T23:05:05.306Z,7.30
2023-02-18T23:07:32.514Z,7.13
2023-02-18T23:09:59.721Z,6.68
2023-02-18T23:12:26.933Z,6.78
2023-02-18T23:14:54.190Z,9.23
2023-02-18T23:17:21.399Z,7.10
2023-02-18T23:19:50.032Z,7.75
2023-02-18T23:22:18.691Z,8.05
2023-02-18T23:24:46.476Z,7.00
2023-02-18T23:27:14.818Z,6.97
2023-02-18T23:29:42.117Z,5.47
2023-02-18T23:32:10.927Z,6.83
2023-02-18T23:34:38.614Z,6.82
2023-02-18T23:37:06.019Z,6.28
2023-02-18T23:39:33.568Z,5.13
2023-02-18T23:42:01.160Z,5.82
2023-02-18T23:44:28.826Z,6.28
2023-02-18T23:46:56.448Z,5.78
2023-02-18T23:49:25.141Z,5.80
2023-02-18T23:51:53.147Z,4.82
2023-02-18T23:54:20.800Z,6.30
2023-02-18T23:56:48.049Z,5.15
2023-02-18T23:59:15.277Z,5.47
